sensor_id;sensor_type;location;lat;lon;timestamp;pressure;altitude;pressure_sealevel;temperature;humidity
50011;BME280;35899;50.352;19.390;2022-08-21T00:01:19;97322.00;;;19.46;94.30
50011;BME280;35899;50.352;19.390;2022-08-21T00:03:47;97321.80;;;19.47;94.26
50011;BME280;35899;50.352;19.390;2022-08-21T00:06:14;97315.55;;;19.48;94.45
50011;BME280;35899;50.352;19.390;2022-08-21T00:08:42;97315.85;;;19.49;94.49
50011;BME280;35899;50.352;19.390;2022-08-21T00:11:10;97312.23;;;19.50;94.54
50011;BME280;35899;50.352;19.390;2022-08-21T00:13:39;97308.42;;;19.53;94.58
50011;BME280;35899;50.352;19.390;2022-08-21T00:16:06;97302.17;;;19.54;94.65
50011;BME280;35899;50.352;19.390;2022-08-21T00:18:33;97298.05;;;19.56;94.55
50011;BME280;35899;50.352;19.390;2022-08-21T00:21:01;97295.89;;;19.55;94.50
50011;BME280;35899;50.352;19.390;2022-08-21T00:23:28;97295.42;;;19.56;94.50
50011;BME280;35899;50.352;19.390;2022-08-21T00:25:55;97299.37;;;19.56;94.22
50011;BME280;35899;50.352;19.390;2022-08-21T00:28:22;97297.41;;;19.53;94.11
50011;BME280;35899;50.352;19.390;2022-08-21T00:30:49;97294.63;;;19.51;94.30
50011;BME280;35899;50.352;19.390;2022-08-21T00:33:17;97306.80;;;19.52;94.46
50011;BME280;35899;50.352;19.390;2022-08-21T00:35:44;97299.41;;;19.51;94.58
50011;BME280;35899;50.352;19.390;2022-08-21T00:38:11;97294.63;;;19.51;94.67
50011;BME280;35899;50.352;19.390;2022-08-21T00:43:19;97287.56;;;19.51;95.01
50011;BME280;35899;50.352;19.390;2022-08-21T00:45:48;97286.05;;;19.53;95.10
50011;BME280;35899;50.352;19.390;2022-08-21T00:48:17;97279.30;;;19.54;94.96
50011;BME280;35899;50.352;19.390;2022-08-21T00:50:48;97268.98;;;19.49;94.61
50011;BME280;35899;50.352;19.390;2022-08-21T00:53:16;97265.13;;;19.41;94.22
50011;BME280;35899;50.352;19.390;2022-08-21T00:55:45;97264.84;;;19.36;94.27
50011;BME280;35899;50.352;19.390;2022-08-21T00:58:14;97261.06;;;19.34;94.58
50011;BME280;35899;50.352;19.390;2022-08-21T01:00:46;97263.39;;;19.33;94.92
50011;BME280;35899;50.352;19.390;2022-08-21T01:03:17;97262.08;;;19.33;95.33
50011;BME280;35899;50.352;19.390;2022-08-21T01:05:46;97261.70;;;19.36;95.55
50011;BME280;35899;50.352;19.390;2022-08-21T01:08:16;97253.64;;;19.38;95.82
50011;BME280;35899;50.352;19.390;2022-08-21T01:10:45;97246.88;;;19.39;95.82
50011;BME280;35899;50.352;19.390;2022-08-21T01:13:16;97251.29;;;19.43;95.68
50011;BME280;35899;50.352;19.390;2022-08-21T01:15:47;97249.47;;;19.43;95.73
50011;BME280;35899;50.352;19.390;2022-08-21T01:18:16;97249.80;;;19.44;95.77
50011;BME280;35899;50.352;19.390;2022-08-21T01:23:36;97256.46;;;19.51;95.92
50011;BME280;35899;50.352;19.390;2022-08-21T01:26:05;97249.20;;;19.53;95.92
50011;BME280;35899;50.352;19.390;2022-08-21T01:28:37;97252.47;;;19.55;95.95
50011;BME280;35899;50.352;19.390;2022-08-21T01:31:07;97249.48;;;19.58;96.02
50011;BME280;35899;50.352;19.390;2022-08-21T01:33:36;97241.41;;;19.60;95.82
50011;BME280;35899;50.352;19.390;2022-08-21T01:36:04;97239.46;;;19.58;95.79
50011;BME280;35899;50.352;19.390;2022-08-21T01:38:31;97234.50;;;19.59;95.83
50011;BME280;35899;50.352;19.390;2022-08-21T01:40:59;97230.38;;;19.60;95.95
50011;BME280;35899;50.352;19.390;2022-08-21T01:43:26;97229.19;;;19.63;95.92
50011;BME280;35899;50.352;19.390;2022-08-21T01:45:53;97230.83;;;19.64;96.00
50011;BME280;35899;50.352;19.390;2022-08-21T01:48:20;97230.48;;;19.67;96.07
50011;BME280;35899;50.352;19.390;2022-08-21T01:50:48;97236.55;;;19.67;96.11
50011;BME280;35899;50.352;19.390;2022-08-21T01:53:15;97230.48;;;19.67;96.15
50011;BME280;35899;50.352;19.390;2022-08-21T01:55:43;97229.28;;;19.69;96.36
50011;BME280;35899;50.352;19.390;2022-08-21T01:58:10;97215.79;;;19.68;96.43
50011;BME280;35899;50.352;19.390;2022-08-21T02:00:37;97210.41;;;19.66;96.53
50011;BME280;35899;50.352;19.390;2022-08-21T02:03:05;97198.26;;;19.65;96.69
50011;BME280;35899;50.352;19.390;2022-08-21T02:05:32;97194.96;;;19.63;96.90
50011;BME280;35899;50.352;19.390;2022-08-21T02:07:59;97201.55;;;19.63;97.13
50011;BME280;35899;50.352;19.390;2022-08-21T02:10:28;97195.98;;;19.62;97.35
50011;BME280;35899;50.352;19.390;2022-08-21T02:12:57;97200.73;;;19.62;97.67
50011;BME280;35899;50.352;19.390;2022-08-21T02:15:26;97190.03;;;19.64;97.96
50011;BME280;35899;50.352;19.390;2022-08-21T02:17:56;97187.39;;;19.64;97.93
50011;BME280;35899;50.352;19.390;2022-08-21T02:22:57;97184.94;;;19.62;98.17
50011;BME280;35899;50.352;19.390;2022-08-21T02:25:25;97184.44;;;19.63;98.36
50011;BME280;35899;50.352;19.390;2022-08-21T02:27:54;97183.11;;;19.63;98.46
50011;BME280;35899;50.352;19.390;2022-08-21T02:30:25;97185.75;;;19.63;98.62
50011;BME280;35899;50.352;19.390;2022-08-21T02:32:58;97178.81;;;19.66;98.73
50011;BME280;35899;50.352;19.390;2022-08-21T02:35:25;97178.52;;;19.65;98.69
50011;BME280;35899;50.352;19.390;2022-08-21T02:37:57;97177.50;;;19.66;98.88
50011;BME280;35899;50.352;19.390;2022-08-21T02:40:27;97175.20;;;19.67;98.99
50011;BME280;35899;50.352;19.390;2022-08-21T02:42:58;97171.88;;;19.69;99.09
50011;BME280;35899;50.352;19.390;2022-08-21T02:45:26;97177.62;;;19.72;99.20
50011;BME280;35899;50.352;19.390;2022-08-21T02:50:29;97183.19;;;19.73;99.27
50011;BME280;35899;50.352;19.390;2022-08-21T02:53:01;97182.20;;;19.75;99.27
50011;BME280;35899;50.352;19.390;2022-08-21T02:55:31;97184.15;;;19.77;99.36
50011;BME280;35899;50.352;19.390;2022-08-21T02:58:00;97190.22;;;19.77;99.33
50011;BME280;35899;50.352;19.390;2022-08-21T03:00:29;97186.78;;;19.77;99.37
50011;BME280;35899;50.352;19.390;2022-08-21T03:02:57;97185.77;;;19.78;99.49
50011;BME280;35899;50.352;19.390;2022-08-21T03:05:27;97181.34;;;19.78;99.48
50011;BME280;35899;50.352;19.390;2022-08-21T03:07:59;97184.95;;;19.77;99.45
50011;BME280;35899;50.352;19.390;2022-08-21T03:10:27;97181.52;;;19.77;99.55
50011;BME280;35899;50.352;19.390;2022-08-21T03:12:55;97179.69;;;19.77;99.64
50011;BME280;35899;50.352;19.390;2022-08-21T03:15:25;97182.33;;;19.77;99.66
50011;BME280;35899;50.352;19.390;2022-08-21T03:17:52;97190.55;;;19.78;99.63
50011;BME280;35899;50.352;19.390;2022-08-21T03:20:23;97185.08;;;19.80;99.71
50011;BME280;35899;50.352;19.390;2022-08-21T03:22:52;97186.73;;;19.81;99.69
50011;BME280;35899;50.352;19.390;2022-08-21T03:25:22;97189.03;;;19.80;99.65
50011;BME280;35899;50.352;19.390;2022-08-21T03:27:50;97186.91;;;19.79;99.63
50011;BME280;35899;50.352;19.390;2022-08-21T03:30:19;97190.17;;;19.81;99.67
50011;BME280;35899;50.352;19.390;2022-08-21T03:32:48;97188.67;;;19.83;99.69
50011;BME280;35899;50.352;19.390;2022-08-21T03:35:15;97192.30;;;19.82;99.70
50011;BME280;35899;50.352;19.390;2022-08-21T03:37:42;97196.06;;;19.83;99.75
50011;BME280;35899;50.352;19.390;2022-08-21T03:40:10;97199.03;;;19.84;99.76
50011;BME280;35899;50.352;19.390;2022-08-21T03:42:38;97199.15;;;19.87;99.82
50011;BME280;35899;50.352;19.390;2022-08-21T03:45:06;97203.73;;;19.89;99.81
50011;BME280;35899;50.352;19.390;2022-08-21T03:47:34;97202.05;;;19.92;99.79
50011;BME280;35899;50.352;19.390;2022-08-21T03:50:04;97201.88;;;19.94;99.62
50011;BME280;35899;50.352;19.390;2022-08-21T03:52:31;97205.83;;;19.94;99.52
50011;BME280;35899;50.352;19.390;2022-08-21T03:54:58;97209.27;;;19.94;99.25
50011;BME280;35899;50.352;19.390;2022-08-21T03:57:25;97216.84;;;19.93;99.20
50011;BME280;35899;50.352;19.390;2022-08-21T03:59:52;97208.94;;;19.93;99.27
50011;BME280;35899;50.352;19.390;2022-08-21T04:02:20;97212.20;;;19.95;99.34
50011;BME280;35899;50.352;19.390;2022-08-21T04:04:48;97214.98;;;19.98;99.29
50011;BME280;35899;50.352;19.390;2022-08-21T04:07:15;97217.92;;;19.99;99.19
50011;BME280;35899;50.352;19.390;2022-08-21T04:09:42;97223.34;;;20.01;99.12
50011;BME280;35899;50.352;19.390;2022-08-21T04:12:09;97218.52;;;20.05;99.09
50011;BME280;35899;50.352;19.390;2022-08-21T04:14:37;97219.45;;;20.08;99.08
50011;BME280;35899;50.352;19.390;2022-08-21T04:17:04;97223.16;;;20.14;98.98
50011;BME280;35899;50.352;19.390;2022-08-21T04:19:31;97221.61;;;20.19;98.91
50011;BME280;35899;50.352;19.390;2022-08-21T04:21:58;97218.91;;;20.23;98.74
50011;BME280;35899;50.352;19.390;2022-08-21T04:24:25;97222.68;;;20.25;98.51
50011;BME280;35899;50.352;19.390;2022-08-21T04:26:52;97224.63;;;20.27;98.36
50011;BME280;35899;50.352;19.390;2022-08-21T04:29:19;97223.42;;;20.29;98.25
50011;BME280;35899;50.352;19.390;2022-08-21T04:31:46;97223.39;;;20.34;98.19
50011;BME280;35899;50.352;19.390;2022-08-21T04:34:13;97225.97;;;20.38;98.21
50011;BME280;35899;50.352;19.390;2022-08-21T04:36:40;97229.53;;;20.41;98.05
50011;BME280;35899;50.352;19.390;2022-08-21T04:39:07;97232.42;;;20.46;98.08
50011;BME280;35899;50.352;19.390;2022-08-21T04:41:35;97226.73;;;20.53;97.99
50011;BME280;35899;50.352;19.390;2022-08-21T04:44:03;97232.08;;;20.60;97.91
50011;BME280;35899;50.352;19.390;2022-08-21T04:46:30;97232.16;;;20.66;97.91
50011;BME280;35899;50.352;19.390;2022-08-21T04:48:57;97230.77;;;20.70;97.75
50011;BME280;35899;50.352;19.390;2022-08-21T04:54:02;97229.06;;;20.84;97.27
50011;BME280;35899;50.352;19.390;2022-08-21T04:56:49;97226.48;;;20.91;97.09
50011;BME280;35899;50.352;19.390;2022-08-21T04:59:22;97235.47;;;20.97;96.99
50011;BME280;35899;50.352;19.390;2022-08-21T05:01:51;97234.52;;;21.04;97.02
50011;BME280;35899;50.352;19.390;2022-08-21T05:04:23;97236.81;;;21.14;96.76
50011;BME280;35899;50.352;19.390;2022-08-21T05:06:55;97235.05;;;21.21;96.47
50011;BME280;35899;50.352;19.390;2022-08-21T05:09:25;97237.23;;;21.28;96.31
50011;BME280;35899;50.352;19.390;2022-08-21T05:11:53;97239.39;;;21.36;95.99
50011;BME280;35899;50.352;19.390;2022-08-21T05:14:21;97242.28;;;21.41;95.62
50011;BME280;35899;50.352;19.390;2022-08-21T05:16:48;97245.30;;;21.48;95.53
50011;BME280;35899;50.352;19.390;2022-08-21T05:19:15;97250.64;;;21.55;95.39
50011;BME280;35899;50.352;19.390;2022-08-21T05:21:45;97251.98;;;21.62;95.15
50011;BME280;35899;50.352;19.390;2022-08-21T05:24:13;97253.65;;;21.70;94.88
50011;BME280;35899;50.352;19.390;2022-08-21T05:26:41;97257.15;;;21.77;94.58
50011;BME280;35899;50.352;19.390;2022-08-21T05:29:08;97256.87;;;21.82;94.29
50011;BME280;35899;50.352;19.390;2022-08-21T05:31:35;97251.83;;;21.88;94.17
50011;BME280;35899;50.352;19.390;2022-08-21T05:34:03;97256.51;;;21.92;93.40
50011;BME280;35899;50.352;19.390;2022-08-21T05:36:30;97256.42;;;21.96;93.13
50011;BME280;35899;50.352;19.390;2022-08-21T05:38:58;97251.67;;;22.02;93.22
50011;BME280;35899;50.352;19.390;2022-08-21T05:41:25;97259.31;;;22.08;92.87
50011;BME280;35899;50.352;19.390;2022-08-21T05:43:52;97260.16;;;22.15;93.01
50011;BME280;35899;50.352;19.390;2022-08-21T05:46:19;97257.34;;;22.23;92.66
50011;BME280;35899;50.352;19.390;2022-08-21T05:48:46;97248.66;;;22.30;92.39
50011;BME280;35899;50.352;19.390;2022-08-21T05:51:14;97246.54;;;22.36;91.79
50011;BME280;35899;50.352;19.390;2022-08-21T05:53:42;97243.61;;;22.41;91.62
50011;BME280;35899;50.352;19.390;2022-08-21T05:56:11;97249.22;;;22.49;91.53
50011;BME280;35899;50.352;19.390;2022-08-21T05:58:38;97241.09;;;22.51;90.97
50011;BME280;35899;50.352;19.390;2022-08-21T06:01:05;97248.31;;;22.53;91.05
50011;BME280;35899;50.352;19.390;2022-08-21T06:03:37;97242.61;;;22.56;90.85
50011;BME280;35899;50.352;19.390;2022-08-21T06:06:06;97248.12;;;22.61;90.54
50011;BME280;35899;50.352;19.390;2022-08-21T06:08:34;97247.43;;;22.70;90.27
50011;BME280;35899;50.352;19.390;2022-08-21T06:11:02;97251.91;;;22.76;90.16
50011;BME280;35899;50.352;19.390;2022-08-21T06:13:30;97249.06;;;22.84;89.37
50011;BME280;35899;50.352;19.390;2022-08-21T06:18:37;97251.20;;;22.91;88.49
50011;BME280;35899;50.352;19.390;2022-08-21T06:21:05;97254.27;;;22.95;88.56
50011;BME280;35899;50.352;19.390;2022-08-21T06:23:33;97251.61;;;23.01;88.45
50011;BME280;35899;50.352;19.390;2022-08-21T06:26:03;97256.54;;;23.05;88.12
50011;BME280;35899;50.352;19.390;2022-08-21T06:28:31;97256.03;;;23.12;88.04
50011;BME280;35899;50.352;19.390;2022-08-21T06:30:59;97261.00;;;23.24;87.76
50011;BME280;35899;50.352;19.390;2022-08-21T06:33:27;97252.88;;;23.32;87.15
50011;BME280;35899;50.352;19.390;2022-08-21T06:35:54;97249.28;;;23.42;86.80
50011;BME280;35899;50.352;19.390;2022-08-21T06:38:22;97251.70;;;23.51;86.43
50011;BME280;35899;50.352;19.390;2022-08-21T06:40:49;97255.36;;;23.63;86.21
50011;BME280;35899;50.352;19.390;2022-08-21T06:43:16;97254.81;;;23.77;85.76
50011;BME280;35899;50.352;19.390;2022-08-21T06:45:44;97256.05;;;23.88;85.48
50011;BME280;35899;50.352;19.390;2022-08-21T06:48:12;97260.06;;;23.97;85.41
50011;BME280;35899;50.352;19.390;2022-08-21T06:50:39;97262.78;;;24.06;85.13
50011;BME280;35899;50.352;19.390;2022-08-21T06:53:09;97257.59;;;24.09;84.05
50011;BME280;35899;50.352;19.390;2022-08-21T06:55:38;97260.58;;;24.03;83.36
50011;BME280;35899;50.352;19.390;2022-08-21T06:58:06;97263.52;;;24.04;83.15
50011;BME280;35899;50.352;19.390;2022-08-21T07:00:35;97261.34;;;24.10;83.11
50011;BME280;35899;50.352;19.390;2022-08-21T07:05:49;97265.98;;;24.22;82.52
50011;BME280;35899;50.352;19.390;2022-08-21T07:08:17;97268.55;;;24.26;81.79
50011;BME280;35899;50.352;19.390;2022-08-21T07:10:44;97266.71;;;24.42;82.27
50011;BME280;35899;50.352;19.390;2022-08-21T07:13:13;97269.63;;;24.56;82.46
50011;BME280;35899;50.352;19.390;2022-08-21T07:15:40;97275.54;;;24.58;81.68
50011;BME280;35899;50.352;19.390;2022-08-21T07:18:07;97279.65;;;24.54;81.36
50011;BME280;35899;50.352;19.390;2022-08-21T07:20:34;97286.31;;;24.41;81.23
50011;BME280;35899;50.352;19.390;2022-08-21T07:23:06;97283.73;;;24.28;81.16
50011;BME280;35899;50.352;19.390;2022-08-21T07:25:33;97285.75;;;24.03;81.03
50011;BME280;35899;50.352;19.390;2022-08-21T07:28:01;97293.75;;;23.83;80.94
50011;BME280;35899;50.352;19.390;2022-08-21T07:30:28;97290.58;;;23.70;81.60
50011;BME280;35899;50.352;19.390;2022-08-21T07:32:58;97287.44;;;23.64;81.87
50011;BME280;35899;50.352;19.390;2022-08-21T07:35:25;97289.20;;;23.61;81.66
50011;BME280;35899;50.352;19.390;2022-08-21T07:37:54;97290.00;;;23.61;81.47
50011;BME280;35899;50.352;19.390;2022-08-21T07:40:21;97286.52;;;23.74;81.48
50011;BME280;35899;50.352;19.390;2022-08-21T07:42:49;97287.41;;;23.77;81.49
50011;BME280;35899;50.352;19.390;2022-08-21T07:45:20;97291.41;;;23.71;81.82
50011;BME280;35899;50.352;19.390;2022-08-21T07:47:48;97287.27;;;23.59;81.82
50011;BME280;35899;50.352;19.390;2022-08-21T07:50:15;97280.66;;;23.46;81.56
50011;BME280;35899;50.352;19.390;2022-08-21T07:52:43;97277.29;;;23.41;81.62
50011;BME280;35899;50.352;19.390;2022-08-21T07:55:13;97275.05;;;23.45;81.91
50011;BME280;35899;50.352;19.390;2022-08-21T07:57:42;97283.81;;;23.32;81.66
50011;BME280;35899;50.352;19.390;2022-08-21T08:00:13;97295.37;;;22.97;81.21
50011;BME280;35899;50.352;19.390;2022-08-21T08:02:46;97294.02;;;22.64;80.88
50011;BME280;35899;50.352;19.390;2022-08-21T08:05:18;97294.36;;;22.41;81.18
50011;BME280;35899;50.352;19.390;2022-08-21T08:07:47;97292.73;;;22.22;81.20
50011;BME280;35899;50.352;19.390;2022-08-21T08:10:16;97295.97;;;22.00;81.02
50011;BME280;35899;50.352;19.390;2022-08-21T08:12:44;97296.23;;;21.88;81.48
50011;BME280;35899;50.352;19.390;2022-08-21T08:15:18;97299.56;;;21.86;81.63
50011;BME280;35899;50.352;19.390;2022-08-21T08:17:46;97305.58;;;21.91;81.90
50011;BME280;35899;50.352;19.390;2022-08-21T08:20:16;97301.05;;;21.95;82.13
50011;BME280;35899;50.352;19.390;2022-08-21T08:22:45;97295.78;;;22.02;82.32
50011;BME280;35899;50.352;19.390;2022-08-21T08:25:13;97294.28;;;22.10;82.56
50011;BME280;35899;50.352;19.390;2022-08-21T08:27:41;97290.02;;;22.09;82.14
50011;BME280;35899;50.352;19.390;2022-08-21T08:30:10;97299.02;;;21.97;82.21
50011;BME280;35899;50.352;19.390;2022-08-21T08:32:39;97293.69;;;21.91;82.37
50011;BME280;35899;50.352;19.390;2022-08-21T08:35:08;97296.73;;;21.88;82.43
50011;BME280;35899;50.352;19.390;2022-08-21T08:37:35;97299.48;;;21.90;82.53
50011;BME280;35899;50.352;19.390;2022-08-21T08:40:05;97298.97;;;21.91;82.53
50011;BME280;35899;50.352;19.390;2022-08-21T08:42:36;97303.47;;;21.97;82.66
50011;BME280;35899;50.352;19.390;2022-08-21T08:45:06;97304.80;;;22.14;82.55
50011;BME280;35899;50.352;19.390;2022-08-21T08:47:47;97302.95;;;22.32;82.02
50011;BME280;35899;50.352;19.390;2022-08-21T08:50:22;97304.47;;;22.61;81.75
50011;BME280;35899;50.352;19.390;2022-08-21T08:53:00;97302.39;;;22.88;81.21
50011;BME280;35899;50.352;19.390;2022-08-21T08:55:38;97293.91;;;23.06;80.09
50011;BME280;35899;50.352;19.390;2022-08-21T08:58:10;97296.56;;;23.19;79.53
50011;BME280;35899;50.352;19.390;2022-08-21T09:00:39;97293.20;;;23.34;79.66
50011;BME280;35899;50.352;19.390;2022-08-21T09:03:06;97287.75;;;23.58;79.16
50011;BME280;35899;50.352;19.390;2022-08-21T09:11:32;97288.05;;;23.86;77.35
50011;BME280;35899;50.352;19.390;2022-08-21T09:17:11;97277.70;;;24.30;76.38
50011;BME280;35899;50.352;19.390;2022-08-21T09:19:59;97270.52;;;24.59;76.14
50011;BME280;35899;50.352;19.390;2022-08-21T09:22:38;97272.53;;;24.80;75.22
50011;BME280;35899;50.352;19.390;2022-08-21T09:27:43;97271.87;;;25.32;74.63
50011;BME280;35899;50.352;19.390;2022-08-21T09:30:11;97272.77;;;25.45;73.57
50011;BME280;35899;50.352;19.390;2022-08-21T09:32:38;97274.91;;;25.45;72.42
50011;BME280;35899;50.352;19.390;2022-08-21T09:40:36;97277.56;;;25.45;71.75
50011;BME280;35899;50.352;19.390;2022-08-21T09:45:41;97271.31;;;25.58;72.20
50011;BME280;35899;50.352;19.390;2022-08-21T09:48:23;97270.90;;;25.70;71.81
50011;BME280;35899;50.352;19.390;2022-08-21T09:50:52;97271.41;;;25.79;71.26
50011;BME280;35899;50.352;19.390;2022-08-21T09:58:46;97271.06;;;26.22;69.85
50011;BME280;35899;50.352;19.390;2022-08-21T10:01:21;97278.20;;;26.30;68.23
50011;BME280;35899;50.352;19.390;2022-08-21T10:04:01;97274.00;;;26.23;67.49
50011;BME280;35899;50.352;19.390;2022-08-21T10:06:29;97285.38;;;26.21;67.20
50011;BME280;35899;50.352;19.390;2022-08-21T10:09:14;97277.55;;;26.26;66.95
50011;BME280;35899;50.352;19.390;2022-08-21T10:11:48;97279.84;;;26.22;66.68
50011;BME280;35899;50.352;19.390;2022-08-21T10:17:07;97276.81;;;26.28;65.96
50011;BME280;35899;50.352;19.390;2022-08-21T10:25:25;97267.52;;;26.58;65.84
50011;BME280;35899;50.352;19.390;2022-08-21T10:28:10;97265.24;;;26.62;64.87
50011;BME280;35899;50.352;19.390;2022-08-21T10:33:46;97260.39;;;26.70;64.74
50011;BME280;35899;50.352;19.390;2022-08-21T10:36:25;97259.77;;;26.99;64.46
50011;BME280;35899;50.352;19.390;2022-08-21T10:42:31;97266.02;;;27.49;63.68
50011;BME280;35899;50.352;19.390;2022-08-21T10:56:24;97261.77;;;27.86;60.52
50011;BME280;35899;50.352;19.390;2022-08-21T11:04:30;97269.36;;;27.21;61.08
50011;BME280;35899;50.352;19.390;2022-08-21T11:07:00;97273.89;;;27.11;61.46
50011;BME280;35899;50.352;19.390;2022-08-21T11:09:32;97273.36;;;27.21;61.12
50011;BME280;35899;50.352;19.390;2022-08-21T11:12:19;97273.39;;;27.33;60.72
50011;BME280;35899;50.352;19.390;2022-08-21T11:17:37;97254.64;;;28.01;59.73
50011;BME280;35899;50.352;19.390;2022-08-21T11:20:15;97273.09;;;28.45;59.67
50011;BME280;35899;50.352;19.390;2022-08-21T11:22:50;97281.84;;;28.70;59.18
50011;BME280;35899;50.352;19.390;2022-08-21T11:25:29;97274.57;;;28.82;58.16
50011;BME280;35899;50.352;19.390;2022-08-21T11:33:58;97270.73;;;28.75;56.92
50011;BME280;35899;50.352;19.390;2022-08-21T11:36:49;97264.78;;;29.92;55.71
50011;BME280;35899;50.352;19.390;2022-08-21T11:39:16;97263.20;;;30.92;54.63
50011;BME280;35899;50.352;19.390;2022-08-21T11:50:35;97253.68;;;31.06;51.50
50011;BME280;35899;50.352;19.390;2022-08-21T11:53:13;97252.97;;;30.32;52.16
50011;BME280;35899;50.352;19.390;2022-08-21T11:56:03;97248.93;;;30.10;51.87
50011;BME280;35899;50.352;19.390;2022-08-21T12:01:27;97246.72;;;32.71;49.33
50011;BME280;35899;50.352;19.390;2022-08-21T12:06:34;97242.66;;;34.32;46.79
50011;BME280;35899;50.352;19.390;2022-08-21T12:09:24;97245.05;;;33.68;47.21
50011;BME280;35899;50.352;19.390;2022-08-21T12:14:48;97233.25;;;35.37;44.69
50011;BME280;35899;50.352;19.390;2022-08-21T12:17:19;97240.66;;;34.92;44.81
50011;BME280;35899;50.352;19.390;2022-08-21T12:22:54;97241.87;;;33.40;46.18
50011;BME280;35899;50.352;19.390;2022-08-21T12:25:23;97239.93;;;32.41;46.08
50011;BME280;35899;50.352;19.390;2022-08-21T12:27:53;97236.95;;;31.71;47.20
50011;BME280;35899;50.352;19.390;2022-08-21T12:33:17;97236.31;;;31.11;48.44
50011;BME280;35899;50.352;19.390;2022-08-21T12:36:03;97238.11;;;30.73;48.89
50011;BME280;35899;50.352;19.390;2022-08-21T12:44:01;97235.79;;;29.28;50.81
50011;BME280;35899;50.352;19.390;2022-08-21T12:46:36;97225.29;;;28.90;51.34
50011;BME280;35899;50.352;19.390;2022-08-21T12:49:14;97232.72;;;28.71;52.09
50011;BME280;35899;50.352;19.390;2022-08-21T12:52:01;97235.43;;;28.56;52.95
50011;BME280;35899;50.352;19.390;2022-08-21T12:54:41;97235.36;;;28.54;53.06
50011;BME280;35899;50.352;19.390;2022-08-21T13:00:00;97222.22;;;27.83;54.56
50011;BME280;35899;50.352;19.390;2022-08-21T13:02:38;97249.02;;;27.64;54.82
50011;BME280;35899;50.352;19.390;2022-08-21T13:05:12;97248.30;;;27.31;55.25
50011;BME280;35899;50.352;19.390;2022-08-21T13:07:46;97244.95;;;27.15;55.60
50011;BME280;35899;50.352;19.390;2022-08-21T13:10:29;97244.63;;;27.58;55.04
50011;BME280;35899;50.352;19.390;2022-08-21T13:13:00;97245.27;;;27.51;55.45
50011;BME280;35899;50.352;19.390;2022-08-21T13:15:33;97239.95;;;27.39;55.76
50011;BME280;35899;50.352;19.390;2022-08-21T13:18:03;97249.45;;;27.47;56.10
50011;BME280;35899;50.352;19.390;2022-08-21T13:20:36;97239.77;;;27.43;55.71
50011;BME280;35899;50.352;19.390;2022-08-21T13:23:26;97241.00;;;27.88;55.55
50011;BME280;35899;50.352;19.390;2022-08-21T13:25:56;97241.69;;;28.36;55.21
50011;BME280;35899;50.352;19.390;2022-08-21T13:28:31;97253.26;;;28.27;55.04
50011;BME280;35899;50.352;19.390;2022-08-21T13:31:06;97253.45;;;28.23;55.12
50011;BME280;35899;50.352;19.390;2022-08-21T13:33:37;97248.31;;;28.19;55.22
50011;BME280;35899;50.352;19.390;2022-08-21T13:36:10;97252.61;;;28.20;54.94
50011;BME280;35899;50.352;19.390;2022-08-21T13:38:42;97244.69;;;27.73;55.69
50011;BME280;35899;50.352;19.390;2022-08-21T13:41:20;97251.81;;;27.69;55.85
50011;BME280;35899;50.352;19.390;2022-08-21T13:43:59;97251.81;;;27.69;55.85
50011;BME280;35899;50.352;19.390;2022-08-21T13:46:34;97253.20;;;28.10;55.86
50011;BME280;35899;50.352;19.390;2022-08-21T13:49:04;97253.15;;;28.62;55.75
50011;BME280;35899;50.352;19.390;2022-08-21T13:51:32;97259.05;;;28.64;54.74
50011;BME280;35899;50.352;19.390;2022-08-21T13:54:00;97266.81;;;28.37;54.57
50011;BME280;35899;50.352;19.390;2022-08-21T13:56:41;97260.39;;;28.10;55.12
50011;BME280;35899;50.352;19.390;2022-08-21T14:04:57;97280.13;;;26.72;56.51
50011;BME280;35899;50.352;19.390;2022-08-21T14:07:38;97289.22;;;26.16;57.67
50011;BME280;35899;50.352;19.390;2022-08-21T14:10:16;97287.70;;;25.64;58.39
50011;BME280;35899;50.352;19.390;2022-08-21T14:12:52;97293.55;;;25.29;59.52
50011;BME280;35899;50.352;19.390;2022-08-21T14:15:27;97289.66;;;25.00;60.26
50011;BME280;35899;50.352;19.390;2022-08-21T14:18:15;97291.25;;;24.76;61.04
50011;BME280;35899;50.352;19.390;2022-08-21T14:20:44;97301.16;;;24.55;61.44
50011;BME280;35899;50.352;19.390;2022-08-21T14:23:26;97297.48;;;24.27;62.27
50011;BME280;35899;50.352;19.390;2022-08-21T14:25:57;97298.89;;;24.00;63.06
50011;BME280;35899;50.352;19.390;2022-08-21T14:28:38;97300.09;;;23.82;63.72
50011;BME280;35899;50.352;19.390;2022-08-21T14:31:15;97306.91;;;23.67;64.30
50011;BME280;35899;50.352;19.390;2022-08-21T14:33:44;97301.43;;;23.55;64.80
50011;BME280;35899;50.352;19.390;2022-08-21T14:36:11;97301.73;;;23.50;65.33
50011;BME280;35899;50.352;19.390;2022-08-21T14:38:39;97302.05;;;23.44;65.65
50011;BME280;35899;50.352;19.390;2022-08-21T14:41:22;97301.92;;;23.41;66.08
50011;BME280;35899;50.352;19.390;2022-08-21T14:43:53;97301.94;;;23.28;66.32
50011;BME280;35899;50.352;19.390;2022-08-21T14:46:26;97301.63;;;23.20;66.90
50011;BME280;35899;50.352;19.390;2022-08-21T14:48:55;97312.95;;;23.12;67.02
50011;BME280;35899;50.352;19.390;2022-08-21T14:51:22;97317.75;;;22.88;67.36
50011;BME280;35899;50.352;19.390;2022-08-21T14:53:50;97321.08;;;22.73;67.90
50011;BME280;35899;50.352;19.390;2022-08-21T14:56:17;97321.88;;;22.60;68.38
50011;BME280;35899;50.352;19.390;2022-08-21T14:58:48;97325.39;;;22.50;68.81
50011;BME280;35899;50.352;19.390;2022-08-21T15:01:17;97320.58;;;22.42;69.12
50011;BME280;35899;50.352;19.390;2022-08-21T15:03:45;97327.45;;;22.30;69.43
50011;BME280;35899;50.352;19.390;2022-08-21T15:06:16;97333.65;;;22.16;69.77
50011;BME280;35899;50.352;19.390;2022-08-21T15:08:44;97330.45;;;22.03;70.25